Time;durP1;ratioP1;P1;durP2;ratioP2;P2;SDS_P1;SDS_P2;PMS_P1;PMS_P2;Temp;Humidity;BMP_temperature;BMP_pressure;BME280_temperature;BME280_humidity;BME280_pressure;Samples;Min_cycle;Max_cycle;Signal;HPM_P1;HPM_P2
2023/10/21 00:00:10;;;;;;;9.35;5.35;;;;;;;;;;5012275;28;20249;-67
2023/10/21 00:02:35;;;;;;;12.93;5.72;;;;;;;;;;5011574;28;20558;-67
2023/10/21 00:05:00;;;;;;;10.20;5.50;;;;;;;;;;5012324;28;20245;-67
2023/10/21 00:07:25;;;;;;;10.38;5.68;;;;;;;;;;5010790;28;20206;-66
2023/10/21 00:09:51;;;;;;;10.43;5.07;;;;;;;;;;5012601;28;20183;-67
2023/10/21 00:12:16;;;;;;;11.00;6.18;;;;;;;;;;5011996;28;20195;-66
2023/10/21 00:14:41;;;;;;;11.95;5.30;;;;;;;;;;5012345;28;20251;-67
2023/10/21 00:17:06;;;;;;;10.20;5.93;;;;;;;;;;5011959;28;20206;-67
2023/10/21 00:19:32;;;;;;;12.50;5.72;;;;;;;;;;5012436;28;20217;-67
2023/10/21 00:21:58;;;;;;;9.05;4.97;;;;;;;;;;5011001;28;20195;-66
2023/10/21 00:24:24;;;;;;;14.88;5.47;;;;;;;;;;5013273;28;20186;-66
2023/10/21 00:26:49;;;;;;;12.07;6.38;;;;;;;;;;5010908;28;20194;-66
2023/10/21 00:29:15;;;;;;;9.25;5.57;;;;;;;;;;5012735;28;20599;-67
2023/10/21 00:31:40;;;;;;;10.85;6.15;;;;;;;;;;5011897;28;20237;-67
2023/10/21 00:34:06;;;;;;;13.88;5.80;;;;;;;;;;5011054;28;20179;-67
2023/10/21 00:36:31;;;;;;;9.25;5.00;;;;;;;;;;5010719;28;20229;-67
2023/10/21 00:38:56;;;;;;;8.20;5.57;;;;;;;;;;5012306;28;20179;-67
2023/10/21 00:41:21;;;;;;;15.13;6.05;;;;;;;;;;5011088;28;20686;-67
2023/10/21 00:43:46;;;;;;;11.63;5.78;;;;;;;;;;5011805;28;20183;-66
2023/10/21 00:46:15;;;;;;;13.65;6.00;;;;;;;;;;5011056;28;20183;-67
2023/10/21 00:48:40;;;;;;;9.50;6.07;;;;;;;;;;5012003;28;20171;-66
2023/10/21 00:51:06;;;;;;;12.25;5.97;;;;;;;;;;5011202;28;20281;-67
2023/10/21 00:53:32;;;;;;;9.18;5.55;;;;;;;;;;5012261;28;20804;-66
2023/10/21 00:55:59;;;;;;;8.32;5.82;;;;;;;;;;5010283;28;20195;-66
2023/10/21 00:58:26;;;;;;;10.13;5.90;;;;;;;;;;5012097;28;20686;-66
2023/10/21 01:00:51;;;;;;;12.23;6.03;;;;;;;;;;5011217;28;20215;-67
2023/10/21 01:03:17;;;;;;;5.85;4.60;;;;;;;;;;5011756;28;20224;-66
2023/10/21 01:05:42;;;;;;;9.30;5.47;;;;;;;;;;5010463;28;20258;-66
2023/10/21 01:08:07;;;;;;;8.90;5.43;;;;;;;;;;5011124;28;20685;-66
2023/10/21 01:10:32;;;;;;;7.80;5.05;;;;;;;;;;5012029;28;20216;-66
2023/10/21 01:12:57;;;;;;;12.55;5.55;;;;;;;;;;5011848;28;20210;-66
2023/10/21 01:15:23;;;;;;;11.85;6.05;;;;;;;;;;5012262;28;20179;-66
2023/10/21 01:17:49;;;;;;;11.77;6.38;;;;;;;;;;5011774;28;20167;-67
2023/10/21 01:20:15;;;;;;;14.68;6.03;;;;;;;;;;5011729;28;20209;-67
2023/10/21 01:22:40;;;;;;;13.27;6.65;;;;;;;;;;5011744;28;20550;-67
2023/10/21 01:25:06;;;;;;;9.70;5.75;;;;;;;;;;5011574;28;20178;-67
2023/10/21 01:27:32;;;;;;;11.15;6.38;;;;;;;;;;5011362;28;20535;-67
2023/10/21 01:29:57;;;;;;;11.05;6.13;;;;;;;;;;5011346;28;20175;-67
2023/10/21 01:32:24;;;;;;;12.13;6.55;;;;;;;;;;5011319;28;20187;-67
2023/10/21 01:34:49;;;;;;;9.85;6.13;;;;;;;;;;5007760;28;20178;-67
2023/10/21 01:37:15;;;;;;;9.70;6.68;;;;;;;;;;5009028;28;20646;-67
2023/10/21 01:39:40;;;;;;;9.55;6.07;;;;;;;;;;5010803;28;20182;-67
2023/10/21 01:42:06;;;;;;;10.43;5.80;;;;;;;;;;5011109;28;20203;-65
2023/10/21 01:44:31;;;;;;;8.73;6.03;;;;;;;;;;5010752;28;20337;-65
2023/10/21 01:46:56;;;;;;;11.48;6.70;;;;;;;;;;5009713;28;20203;-65
2023/10/21 01:49:21;;;;;;;11.90;7.15;;;;;;;;;;5010772;28;20175;-66
2023/10/21 01:51:46;;;;;;;12.05;7.03;;;;;;;;;;5010598;28;20274;-66
2023/10/21 01:54:12;;;;;;;12.50;6.70;;;;;;;;;;5010020;28;20187;-66
2023/10/21 01:56:38;;;;;;;11.73;6.47;;;;;;;;;;5010338;28;20679;-66
2023/10/21 01:59:03;;;;;;;14.75;6.43;;;;;;;;;;5010888;28;20426;-66
2023/10/21 02:01:28;;;;;;;14.45;6.78;;;;;;;;;;5009492;28;20229;-66
2023/10/21 02:03:53;;;;;;;13.48;6.00;;;;;;;;;;5007147;28;20191;-66
2023/10/21 02:06:19;;;;;;;15.13;6.38;;;;;;;;;;5007979;28;20692;-66
2023/10/21 02:08:44;;;;;;;12.38;6.30;;;;;;;;;;5009850;28;20171;-66
2023/10/21 02:11:09;;;;;;;10.43;6.38;;;;;;;;;;5010306;28;20328;-66
2023/10/21 02:13:34;;;;;;;14.02;6.78;;;;;;;;;;5011073;28;20167;-66
2023/10/21 02:15:59;;;;;;;10.63;5.93;;;;;;;;;;5010066;28;20265;-66
2023/10/21 02:18:25;;;;;;;10.60;6.70;;;;;;;;;;5011173;28;20180;-66
2023/10/21 02:20:50;;;;;;;8.50;5.97;;;;;;;;;;5009241;28;20561;-65
2023/10/21 02:23:15;;;;;;;8.77;6.32;;;;;;;;;;5010620;28;20257;-65
2023/10/21 02:25:40;;;;;;;9.00;6.43;;;;;;;;;;5009174;28;20669;-66
2023/10/21 02:28:05;;;;;;;9.43;6.30;;;;;;;;;;5010498;28;20195;-66
2023/10/21 02:30:31;;;;;;;17.58;6.72;;;;;;;;;;5010021;28;20207;-66
2023/10/21 02:32:56;;;;;;;10.98;6.60;;;;;;;;;;5010343;28;20214;-66
2023/10/21 02:35:21;;;;;;;11.82;6.07;;;;;;;;;;5007760;28;20179;-66
2023/10/21 02:37:47;;;;;;;9.95;5.57;;;;;;;;;;5010562;28;20171;-66
2023/10/21 02:40:15;;;;;;;11.23;6.00;;;;;;;;;;5010201;28;20237;-66
2023/10/21 02:42:41;;;;;;;9.98;5.95;;;;;;;;;;5010766;28;20176;-66
2023/10/21 02:45:06;;;;;;;8.43;5.30;;;;;;;;;;5010221;28;20179;-66
2023/10/21 02:47:31;;;;;;;10.98;6.15;;;;;;;;;;5008509;28;20237;-66
2023/10/21 02:49:57;;;;;;;13.57;6.38;;;;;;;;;;5009862;28;20682;-66
2023/10/21 02:52:22;;;;;;;12.35;6.88;;;;;;;;;;5010962;28;20181;-66
2023/10/21 02:54:48;;;;;;;8.90;6.18;;;;;;;;;;5009289;28;20206;-66
2023/10/21 02:57:13;;;;;;;11.35;6.93;;;;;;;;;;5008106;28;20273;-66
2023/10/21 02:59:38;;;;;;;11.65;6.95;;;;;;;;;;5010161;28;20290;-66
2023/10/21 03:02:04;;;;;;;12.40;6.72;;;;;;;;;;5010459;28;20206;-67
2023/10/21 03:04:29;;;;;;;14.68;6.55;;;;;;;;;;5010010;28;20175;-67
2023/10/21 03:06:54;;;;;;;9.80;6.40;;;;;;;;;;5009392;28;20233;-66
2023/10/21 03:09:19;;;;;;;9.98;6.53;;;;;;;;;;5008891;28;20167;-66
2023/10/21 03:11:45;;;;;;;9.68;6.13;;;;;;;;;;5010866;28;20669;-66
2023/10/21 03:14:10;;;;;;;13.90;6.75;;;;;;;;;;5009730;28;20549;-66
2023/10/21 03:16:36;;;;;;;9.05;6.05;;;;;;;;;;5010257;28;20253;-66
2023/10/21 03:19:04;;;;;;;9.75;5.80;;;;;;;;;;5010780;28;20258;-66
2023/10/21 03:21:29;;;;;;;10.02;5.85;;;;;;;;;;5013890;28;20187;-66
2023/10/21 03:23:54;;;;;;;8.15;5.85;;;;;;;;;;5013505;28;20175;-66
2023/10/21 03:26:19;;;;;;;11.50;5.90;;;;;;;;;;5012403;28;20228;-66
2023/10/21 03:28:44;;;;;;;13.27;6.07;;;;;;;;;;5013377;28;20179;-65
2023/10/21 03:31:10;;;;;;;9.77;6.35;;;;;;;;;;5011970;28;20568;-66
2023/10/21 03:33:35;;;;;;;12.25;6.13;;;;;;;;;;5013750;28;20177;-66
2023/10/21 03:36:02;;;;;;;11.20;6.80;;;;;;;;;;5010575;28;20205;-66
2023/10/21 03:38:28;;;;;;;11.93;5.88;;;;;;;;;;5012122;28;20726;-66
2023/10/21 03:41:06;;;;;;;12.68;6.55;;;;;;;;;;5012695;28;20281;-66
2023/10/21 03:43:31;;;;;;;7.40;5.20;;;;;;;;;;5012094;28;20718;-66
2023/10/21 03:46:01;;;;;;;11.32;6.43;;;;;;;;;;5012405;28;20294;-66
2023/10/21 03:48:26;;;;;;;11.85;6.45;;;;;;;;;;5013122;28;20641;-66
2023/10/21 03:50:52;;;;;;;10.75;6.35;;;;;;;;;;5012819;28;20194;-67
2023/10/21 03:53:17;;;;;;;14.20;6.28;;;;;;;;;;5009470;28;20190;-67
2023/10/21 03:55:43;;;;;;;13.18;7.00;;;;;;;;;;5012410;28;20670;-67
2023/10/21 03:58:08;;;;;;;11.15;5.57;;;;;;;;;;5012341;28;20233;-67
2023/10/21 04:00:34;;;;;;;11.05;6.20;;;;;;;;;;5012346;28;20580;-67
2023/10/21 04:02:59;;;;;;;16.80;6.05;;;;;;;;;;5011170;28;20219;-67
2023/10/21 04:05:24;;;;;;;12.60;6.03;;;;;;;;;;5012768;28;20187;-67
2023/10/21 04:07:50;;;;;;;15.13;6.50;;;;;;;;;;5014266;28;20195;-67
2023/10/21 04:10:15;;;;;;;10.73;5.97;;;;;;;;;;5012897;28;20207;-67
2023/10/21 04:12:40;;;;;;;15.32;6.65;;;;;;;;;;5013530;28;20182;-67
2023/10/21 04:15:07;;;;;;;11.57;7.15;;;;;;;;;;5012349;28;20187;-67
2023/10/21 04:17:33;;;;;;;8.98;6.43;;;;;;;;;;5011630;28;20193;-67
2023/10/21 04:19:58;;;;;;;15.95;7.00;;;;;;;;;;5011934;28;20205;-67
2023/10/21 04:22:23;;;;;;;14.07;6.97;;;;;;;;;;5012566;28;20187;-67
2023/10/21 04:24:48;;;;;;;13.70;7.05;;;;;;;;;;5012073;28;20548;-67
2023/10/21 04:27:14;;;;;;;11.18;5.93;;;;;;;;;;5012343;28;20218;-67
2023/10/21 04:29:39;;;;;;;11.75;6.10;;;;;;;;;;5012131;28;20182;-67
2023/10/21 04:32:05;;;;;;;9.45;5.95;;;;;;;;;;5011524;28;20264;-67
2023/10/21 04:34:30;;;;;;;9.98;6.38;;;;;;;;;;5011259;28;20187;-67
2023/10/21 04:36:55;;;;;;;8.35;5.78;;;;;;;;;;5012103;28;20270;-66
2023/10/21 04:39:21;;;;;;;14.13;5.95;;;;;;;;;;5012572;28;20183;-67
2023/10/21 04:41:49;;;;;;;11.00;5.78;;;;;;;;;;5012348;28;20568;-67
2023/10/21 04:44:14;;;;;;;13.48;5.95;;;;;;;;;;5012203;28;20186;-67
2023/10/21 04:46:39;;;;;;;12.93;6.25;;;;;;;;;;5012033;28;20198;-67
2023/10/21 04:49:04;;;;;;;14.52;6.20;;;;;;;;;;5012117;28;20171;-67
2023/10/21 04:51:30;;;;;;;12.43;6.18;;;;;;;;;;5011988;28;20274;-67
2023/10/21 04:53:55;;;;;;;10.30;5.50;;;;;;;;;;5011848;28;20178;-67
2023/10/21 04:56:20;;;;;;;9.88;5.45;;;;;;;;;;5011378;28;20211;-67
2023/10/21 04:58:45;;;;;;;10.77;6.40;;;;;;;;;;5012154;28;20183;-67
2023/10/21 05:01:11;;;;;;;10.57;5.90;;;;;;;;;;5011873;28;20274;-67
2023/10/21 05:03:36;;;;;;;11.90;5.75;;;;;;;;;;5012412;28;20179;-67
2023/10/21 05:06:04;;;;;;;15.65;6.38;;;;;;;;;;5010826;28;20171;-67
2023/10/21 05:08:30;;;;;;;12.18;6.20;;;;;;;;;;5011814;28;20697;-67
2023/10/21 05:10:55;;;;;;;16.00;7.00;;;;;;;;;;5011763;28;20198;-67
2023/10/21 05:13:20;;;;;;;23.15;7.28;;;;;;;;;;5012021;28;20584;-66
2023/10/21 05:15:45;;;;;;;7.60;5.65;;;;;;;;;;5011649;28;20175;-67
2023/10/21 05:18:11;;;;;;;10.38;5.85;;;;;;;;;;5011916;28;20634;-67
2023/10/21 05:20:36;;;;;;;13.90;6.15;;;;;;;;;;5010203;28;20256;-67
2023/10/21 05:23:01;;;;;;;11.48;5.93;;;;;;;;;;5011763;28;20178;-67
2023/10/21 05:25:26;;;;;;;12.35;6.05;;;;;;;;;;5011728;28;20186;-67
2023/10/21 05:27:52;;;;;;;16.80;6.70;;;;;;;;;;5010554;28;20202;-66
2023/10/21 05:30:17;;;;;;;10.40;6.22;;;;;;;;;;5010570;28;20221;-67
2023/10/21 05:32:43;;;;;;;13.63;6.25;;;;;;;;;;5011691;28;20194;-67
2023/10/21 05:35:08;;;;;;;12.95;5.88;;;;;;;;;;5009626;28;20257;-67
2023/10/21 05:37:33;;;;;;;11.07;5.80;;;;;;;;;;5010672;28;20606;-67
2023/10/21 05:39:59;;;;;;;8.82;5.35;;;;;;;;;;5008120;28;20197;-67
2023/10/21 05:42:24;;;;;;;11.88;5.65;;;;;;;;;;5011106;28;20245;-67
2023/10/21 05:44:49;;;;;;;15.20;6.80;;;;;;;;;;5011078;28;20708;-67
2023/10/21 05:47:15;;;;;;;13.55;6.15;;;;;;;;;;5011255;28;20195;-67
2023/10/21 05:49:40;;;;;;;16.40;7.13;;;;;;;;;;5010456;28;20256;-67
2023/10/21 05:52:05;;;;;;;12.93;5.93;;;;;;;;;;5008402;28;20198;-67
2023/10/21 05:54:31;;;;;;;13.88;6.70;;;;;;;;;;5010210;28;20863;-67
2023/10/21 05:56:56;;;;;;;12.90;6.05;;;;;;;;;;5011157;28;20657;-67
2023/10/21 05:59:21;;;;;;;15.40;6.50;;;;;;;;;;5010611;28;20178;-67
2023/10/21 06:01:46;;;;;;;16.52;6.13;;;;;;;;;;5006803;28;20191;-67
2023/10/21 06:04:11;;;;;;;11.27;6.28;;;;;;;;;;5010917;28;20187;-67
2023/10/21 06:06:37;;;;;;;10.60;6.53;;;;;;;;;;5009123;28;20183;-67
2023/10/21 06:09:03;;;;;;;10.15;5.47;;;;;;;;;;5009948;28;20646;-67
2023/10/21 06:11:29;;;;;;;14.32;6.82;;;;;;;;;;5010935;28;20201;-67
2023/10/21 06:13:54;;;;;;;12.55;5.72;;;;;;;;;;5010454;28;20557;-67
2023/10/21 06:16:19;;;;;;;13.35;5.68;;;;;;;;;;5009338;28;20722;-67
2023/10/21 06:18:45;;;;;;;11.65;5.68;;;;;;;;;;5010554;28;20191;-67
2023/10/21 06:21:10;;;;;;;9.65;4.97;;;;;;;;;;5009817;28;20213;-67
2023/10/21 06:23:35;;;;;;;10.35;4.93;;;;;;;;;;5009733;28;20666;-67
2023/10/21 06:26:01;;;;;;;10.07;5.65;;;;;;;;;;5010609;28;20179;-67
2023/10/21 06:28:26;;;;;;;11.98;5.47;;;;;;;;;;5008913;28;20298;-67
2023/10/21 06:30:51;;;;;;;8.38;5.50;;;;;;;;;;5010669;28;20242;-67
2023/10/21 06:33:16;;;;;;;16.27;6.05;;;;;;;;;;5008118;28;20199;-67
2023/10/21 06:35:42;;;;;;;10.35;5.57;;;;;;;;;;5008843;28;20171;-67
2023/10/21 06:38:08;;;;;;;10.38;5.78;;;;;;;;;;5009681;28;20210;-67
2023/10/21 06:40:33;;;;;;;12.23;5.13;;;;;;;;;;5010500;28;20253;-66
2023/10/21 06:42:59;;;;;;;12.35;5.68;;;;;;;;;;5009789;28;20190;-67
2023/10/21 06:45:25;;;;;;;12.07;5.65;;;;;;;;;;5009983;28;20179;-67
2023/10/21 06:47:50;;;;;;;14.52;5.32;;;;;;;;;;5006399;28;20241;-67
2023/10/21 06:50:15;;;;;;;11.82;5.60;;;;;;;;;;5008583;28;20206;-67
2023/10/21 06:52:41;;;;;;;11.82;5.82;;;;;;;;;;5010297;28;20179;-67
2023/10/21 06:55:07;;;;;;;11.57;5.90;;;;;;;;;;5010791;28;20179;-67
2023/10/21 06:57:32;;;;;;;8.40;5.15;;;;;;;;;;5012256;28;20179;-67
2023/10/21 06:59:59;;;;;;;11.95;5.78;;;;;;;;;;5014279;28;20419;-67
2023/10/21 07:02:24;;;;;;;8.63;5.10;;;;;;;;;;5014574;28;20175;-67
2023/10/21 07:04:50;;;;;;;12.60;5.25;;;;;;;;;;5013891;28;20189;-67
2023/10/21 07:07:15;;;;;;;13.43;5.55;;;;;;;;;;5013546;28;20209;-67
2023/10/21 07:09:40;;;;;;;12.57;5.22;;;;;;;;;;5013837;28;20182;-67
2023/10/21 07:12:06;;;;;;;12.70;4.95;;;;;;;;;;5012526;28;20218;-67
2023/10/21 07:14:31;;;;;;;8.15;4.50;;;;;;;;;;5014060;28;20179;-67
2023/10/21 07:16:57;;;;;;;11.85;4.93;;;;;;;;;;5013822;28;20266;-67
2023/10/21 07:19:22;;;;;;;7.68;4.57;;;;;;;;;;5014181;28;20561;-67
2023/10/21 07:21:48;;;;;;;9.57;4.15;;;;;;;;;;5013794;28;20803;-66
2023/10/21 07:24:13;;;;;;;8.60;4.88;;;;;;;;;;5014321;28;20233;-66
2023/10/21 07:26:38;;;;;;;8.30;4.13;;;;;;;;;;5013583;28;20670;-66
2023/10/21 07:29:03;;;;;;;6.75;4.38;;;;;;;;;;5013731;28;20226;-67
2023/10/21 07:31:29;;;;;;;8.98;4.93;;;;;;;;;;5013692;28;20222;-67
2023/10/21 07:33:54;;;;;;;8.80;4.65;;;;;;;;;;5008266;28;20692;-67
2023/10/21 07:36:19;;;;;;;8.50;5.15;;;;;;;;;;5011909;28;20183;-67
2023/10/21 07:38:45;;;;;;;8.73;4.60;;;;;;;;;;5012936;28;20525;-67
2023/10/21 07:41:11;;;;;;;6.30;4.65;;;;;;;;;;5013171;28;20225;-68
2023/10/21 07:43:36;;;;;;;6.95;4.25;;;;;;;;;;5012799;28;20175;-68
2023/10/21 07:46:03;;;;;;;9.95;4.05;;;;;;;;;;5013064;28;20186;-68
2023/10/21 07:48:28;;;;;;;7.10;3.88;;;;;;;;;;5013505;28;20293;-68
2023/10/21 07:50:54;;;;;;;8.77;4.43;;;;;;;;;;5012959;28;20310;-68
2023/10/21 07:53:20;;;;;;;8.30;3.78;;;;;;;;;;5013520;28;20179;-68
2023/10/21 07:55:45;;;;;;;5.30;3.53;;;;;;;;;;5013221;28;20177;-68
2023/10/21 07:58:10;;;;;;;6.40;3.58;;;;;;;;;;5012537;28;20175;-68
2023/10/21 08:00:36;;;;;;;8.35;4.03;;;;;;;;;;5012186;28;20286;-68
2023/10/21 08:03:01;;;;;;;6.75;3.55;;;;;;;;;;5012046;28;20197;-68
2023/10/21 08:05:27;;;;;;;4.63;3.42;;;;;;;;;;5009538;28;20564;-68
2023/10/21 08:07:52;;;;;;;5.15;3.53;;;;;;;;;;5010825;28;20251;-68
2023/10/21 08:10:17;;;;;;;4.38;3.15;;;;;;;;;;5011191;28;20199;-68
2023/10/21 08:12:43;;;;;;;6.57;3.00;;;;;;;;;;5012170;28;20171;-68
2023/10/21 08:15:09;;;;;;;3.40;2.53;;;;;;;;;;5012224;28;20682;-68
2023/10/21 08:17:35;;;;;;;6.03;2.80;;;;;;;;;;5010799;28;21154;-68
2023/10/21 08:20:01;;;;;;;3.95;2.88;;;;;;;;;;5012121;28;20183;-68
2023/10/21 08:22:26;;;;;;;3.13;2.28;;;;;;;;;;5012536;28;20187;-68
2023/10/21 08:24:52;;;;;;;4.32;2.80;;;;;;;;;;5011852;28;20187;-68
2023/10/21 08:27:18;;;;;;;4.53;2.17;;;;;;;;;;5005627;28;20769;-67
2023/10/21 08:29:43;;;;;;;4.40;2.17;;;;;;;;;;5009935;28;20257;-68
2023/10/21 08:32:08;;;;;;;2.13;1.92;;;;;;;;;;5011313;28;20260;-67
2023/10/21 08:34:36;;;;;;;2.92;1.52;;;;;;;;;;5010989;28;20179;-67
2023/10/21 08:37:02;;;;;;;1.70;1.40;;;;;;;;;;5010967;28;20182;-67
2023/10/21 08:39:27;;;;;;;3.47;1.33;;;;;;;;;;5012115;28;20560;-67
2023/10/21 08:41:53;;;;;;;2.13;1.10;;;;;;;;;;5012109;28;20199;-67
2023/10/21 08:44:20;;;;;;;1.48;1.08;;;;;;;;;;5011833;28;20593;-66
2023/10/21 08:46:46;;;;;;;1.10;1.00;;;;;;;;;;5009347;28;20193;-67
2023/10/21 08:49:12;;;;;;;1.80;0.70;;;;;;;;;;5012181;28;20183;-66
2023/10/21 08:51:37;;;;;;;1.00;0.90;;;;;;;;;;5011016;28;20297;-66
2023/10/21 08:54:03;;;;;;;1.08;0.98;;;;;;;;;;5011021;28;20219;-66
2023/10/21 08:56:29;;;;;;;1.00;0.63;;;;;;;;;;5012141;28;20252;-66
2023/10/21 08:58:55;;;;;;;2.25;1.27;;;;;;;;;;5011846;28;20190;-66
2023/10/21 09:01:21;;;;;;;1.85;0.60;;;;;;;;;;5011993;28;20583;-66
2023/10/21 09:03:46;;;;;;;1.17;0.73;;;;;;;;;;5012001;28;20175;-65
2023/10/21 09:06:11;;;;;;;5.32;0.65;;;;;;;;;;5010984;28;20186;-66
2023/10/21 09:08:40;;;;;;;3.53;0.95;;;;;;;;;;5012098;28;20640;-66
2023/10/21 09:11:06;;;;;;;1.75;0.52;;;;;;;;;;5010435;28;20187;-66
2023/10/21 09:13:33;;;;;;;1.83;0.57;;;;;;;;;;5011976;28;20650;-66
2023/10/21 09:15:58;;;;;;;1.45;0.85;;;;;;;;;;5011771;28;20459;-66
2023/10/21 09:18:23;;;;;;;1.80;0.50;;;;;;;;;;5011527;28;20167;-66
2023/10/21 09:20:51;;;;;;;6.63;0.90;;;;;;;;;;5011742;28;20199;-66
2023/10/21 09:23:17;;;;;;;1.27;0.55;;;;;;;;;;5011652;28;20255;-66
2023/10/21 09:25:52;;;;;;;2.05;1.00;;;;;;;;;;5011356;28;20281;-66
2023/10/21 09:28:21;;;;;;;2.38;0.70;;;;;;;;;;5010165;28;20289;-65
2023/10/21 09:31:00;;;;;;;4.00;0.73;;;;;;;;;;5009859;28;20294;-65
2023/10/21 09:33:26;;;;;;;2.40;0.63;;;;;;;;;;5005019;28;20175;-66
2023/10/21 09:36:01;;;;;;;1.80;0.30;;;;;;;;;;5009804;28;20270;-66
2023/10/21 09:38:26;;;;;;;0.90;0.50;;;;;;;;;;5010660;28;20210;-66
2023/10/21 09:40:52;;;;;;;1.67;0.82;;;;;;;;;;5011414;28;20233;-66
2023/10/21 09:43:17;;;;;;;1.92;0.40;;;;;;;;;;5010719;28;20209;-66
2023/10/21 09:45:44;;;;;;;0.90;0.47;;;;;;;;;;5010060;28;20214;-66
2023/10/21 09:48:10;;;;;;;2.08;0.65;;;;;;;;;;5010504;28;20548;-66
2023/10/21 09:50:37;;;;;;;1.10;0.45;;;;;;;;;;5011216;28;20202;-66
2023/10/21 09:53:09;;;;;;;2.08;0.60;;;;;;;;;;5010418;28;20450;-66
2023/10/21 09:55:35;;;;;;;2.88;0.60;;;;;;;;;;5011274;28;20171;-65
2023/10/21 09:58:00;;;;;;;4.60;1.02;;;;;;;;;;5009915;28;20214;-66
2023/10/21 10:00:25;;;;;;;1.50;0.60;;;;;;;;;;5011386;28;20694;-65
2023/10/21 10:02:53;;;;;;;0.98;0.52;;;;;;;;;;5009862;28;20174;-65
2023/10/21 10:05:20;;;;;;;2.25;0.77;;;;;;;;;;5003956;28;20226;-65
2023/10/21 10:07:45;;;;;;;1.45;0.80;;;;;;;;;;5009049;28;20190;-65
2023/10/21 10:10:12;;;;;;;2.15;0.57;;;;;;;;;;5010639;28;20595;-65
2023/10/21 10:12:44;;;;;;;2.10;0.77;;;;;;;;;;5011100;28;20170;-65
2023/10/21 10:15:45;;;;;;;2.83;0.50;;;;;;;;;;5011229;28;20753;-65
2023/10/21 10:18:15;;;;;;;2.97;0.85;;;;;;;;;;4948944;29;20263;-65
2023/10/21 10:20:50;;;;;;;4.93;1.02;;;;;;;;;;5000282;28;20306;-65
2023/10/21 10:23:17;;;;;;;1.52;0.65;;;;;;;;;;5009831;28;20669;-65
2023/10/21 10:25:44;;;;;;;4.65;0.63;;;;;;;;;;5008126;28;20639;-65
2023/10/21 10:28:19;;;;;;;2.55;0.80;;;;;;;;;;5009718;28;20554;-65
2023/10/21 10:30:45;;;;;;;1.80;0.98;;;;;;;;;;5013926;28;20201;-65
2023/10/21 10:33:15;;;;;;;1.52;0.50;;;;;;;;;;5012713;28;20218;-65
2023/10/21 10:35:42;;;;;;;1.20;0.50;;;;;;;;;;5012803;28;20183;-66
2023/10/21 10:38:19;;;;;;;2.78;0.93;;;;;;;;;;5013698;28;20724;-66
2023/10/21 10:40:45;;;;;;;1.63;0.60;;;;;;;;;;5014150;28;20205;-66
2023/10/21 10:43:10;;;;;;;2.15;0.60;;;;;;;;;;5013935;28;20486;-65
2023/10/21 10:45:36;;;;;;;4.35;1.05;;;;;;;;;;5014022;28;20182;-65
2023/10/21 10:48:02;;;;;;;1.30;0.65;;;;;;;;;;5012866;28;20573;-65
2023/10/21 10:50:28;;;;;;;2.70;0.65;;;;;;;;;;5012981;28;20190;-65
2023/10/21 10:52:54;;;;;;;1.35;0.77;;;;;;;;;;5014335;28;20170;-65
2023/10/21 10:55:21;;;;;;;3.53;0.90;;;;;;;;;;5013947;28;20178;-66
2023/10/21 10:57:47;;;;;;;1.98;0.60;;;;;;;;;;5012001;28;20223;-65
2023/10/21 11:00:20;;;;;;;1.08;0.40;;;;;;;;;;5014230;28;20689;-65
2023/10/21 11:02:46;;;;;;;2.58;0.93;;;;;;;;;;5014064;28;20218;-65
2023/10/21 11:05:15;;;;;;;2.25;1.10;;;;;;;;;;5014034;28;20639;-66
2023/10/21 11:07:40;;;;;;;1.80;0.80;;;;;;;;;;5013724;28;20583;-65
2023/10/21 11:10:07;;;;;;;2.53;0.93;;;;;;;;;;5013889;28;20171;-65
2023/10/21 11:12:32;;;;;;;4.85;1.02;;;;;;;;;;5014360;28;20259;-65
2023/10/21 11:15:00;;;;;;;3.47;0.80;;;;;;;;;;5013923;28;20257;-65
2023/10/21 11:17:25;;;;;;;2.10;0.75;;;;;;;;;;5012659;28;20204;-66
2023/10/21 11:19:50;;;;;;;4.22;0.77;;;;;;;;;;5014051;28;20175;-65
2023/10/21 11:22:25;;;;;;;4.20;0.75;;;;;;;;;;5014006;28;20203;-66
2023/10/21 11:24:50;;;;;;;2.42;0.70;;;;;;;;;;5013950;28;20666;-65
2023/10/21 11:27:16;;;;;;;3.15;1.00;;;;;;;;;;5013675;28;20230;-65
2023/10/21 11:29:41;;;;;;;2.38;0.47;;;;;;;;;;5012026;28;20179;-65
2023/10/21 11:32:10;;;;;;;1.48;0.50;;;;;;;;;;5013940;28;20736;-65
2023/10/21 11:34:35;;;;;;;4.13;1.17;;;;;;;;;;5009824;28;20232;-65
2023/10/21 11:37:01;;;;;;;2.15;0.50;;;;;;;;;;5012118;28;20891;-65
2023/10/21 11:39:26;;;;;;;2.80;0.40;;;;;;;;;;5011015;28;20237;-65
2023/10/21 11:41:53;;;;;;;0.43;0.30;;;;;;;;;;5012566;28;20198;-65
2023/10/21 11:44:24;;;;;;;2.67;0.50;;;;;;;;;;5004209;28;20183;-65
2023/10/21 11:46:49;;;;;;;3.65;0.88;;;;;;;;;;5013497;28;20187;-65
2023/10/21 11:49:15;;;;;;;2.53;0.73;;;;;;;;;;5012144;28;20202;-65
2023/10/21 11:51:41;;;;;;;3.17;0.60;;;;;;;;;;5013664;28;20278;-65
2023/10/21 11:54:09;;;;;;;3.05;0.55;;;;;;;;;;5012513;28;20270;-66
2023/10/21 11:57:24;;;;;;;4.40;1.05;;;;;;;;;;5011104;28;20179;-66
2023/10/21 12:05:43;;;;;;;2.13;0.65;;;;;;;;;;5008951;28;20167;-65
2023/10/21 12:24:33;;;;;;;2.92;0.75;;;;;;;;;;5011759;28;20174;-65
2023/10/21 12:45:18;;;;;;;3.03;1.05;;;;;;;;;;5008960;28;20258;-65
2023/10/21 12:47:43;;;;;;;2.15;0.90;;;;;;;;;;5011319;28;20186;-65
2023/10/21 12:50:12;;;;;;;10.60;1.70;;;;;;;;;;5011032;28;20179;-65
2023/10/21 12:52:38;;;;;;;4.72;1.13;;;;;;;;;;5007229;28;20616;-65
2023/10/21 12:55:06;;;;;;;4.75;0.80;;;;;;;;;;5010147;28;20207;-65
2023/10/21 12:57:31;;;;;;;1.85;0.93;;;;;;;;;;5006694;28;20256;-65
2023/10/21 12:59:57;;;;;;;2.00;0.90;;;;;;;;;;5011024;28;20630;-65
2023/10/21 13:02:22;;;;;;;6.03;1.02;;;;;;;;;;5012189;28;20662;-65
2023/10/21 13:04:47;;;;;;;6.97;1.30;;;;;;;;;;5011968;28;20175;-65
2023/10/21 13:07:12;;;;;;;4.78;1.13;;;;;;;;;;5011141;28;20202;-65
2023/10/21 13:09:40;;;;;;;6.07;1.20;;;;;;;;;;5011604;28;20167;-65
2023/10/21 13:12:09;;;;;;;7.55;1.35;;;;;;;;;;5011824;28;20206;-65
2023/10/21 13:14:35;;;;;;;3.85;0.90;;;;;;;;;;5011979;28;20167;-65
2023/10/21 13:17:00;;;;;;;4.15;1.05;;;;;;;;;;5011550;28;20562;-65
2023/10/21 13:19:25;;;;;;;8.50;1.95;;;;;;;;;;5012031;28;20175;-65
2023/10/21 13:21:53;;;;;;;3.70;1.05;;;;;;;;;;5012239;28;20195;-65
2023/10/21 13:24:18;;;;;;;5.28;0.98;;;;;;;;;;5010600;28;20273;-65
2023/10/21 13:26:43;;;;;;;4.82;1.20;;;;;;;;;;5011399;28;20593;-65
2023/10/21 13:29:09;;;;;;;8.10;2.00;;;;;;;;;;5011682;28;20270;-65
2023/10/21 13:31:34;;;;;;;7.18;1.00;;;;;;;;;;5011540;28;20210;-65
2023/10/21 13:34:02;;;;;;;4.93;0.88;;;;;;;;;;5009974;28;20206;-65
2023/10/21 13:36:27;;;;;;;4.43;1.20;;;;;;;;;;5009998;28;20458;-64
2023/10/21 13:38:53;;;;;;;3.67;1.10;;;;;;;;;;5010723;28;20181;-65
2023/10/21 13:41:19;;;;;;;6.03;1.40;;;;;;;;;;5010091;28;20285;-64
2023/10/21 13:43:44;;;;;;;5.97;1.95;;;;;;;;;;5010818;28;20566;-64
2023/10/21 13:46:09;;;;;;;4.35;1.67;;;;;;;;;;5011114;28;20646;-65
2023/10/21 13:48:35;;;;;;;5.88;1.38;;;;;;;;;;5009702;28;20242;-65
2023/10/21 13:51:06;;;;;;;8.77;1.35;;;;;;;;;;5010239;28;20205;-65
2023/10/21 13:53:32;;;;;;;7.18;1.58;;;;;;;;;;5004347;28;20178;-65
2023/10/21 13:55:57;;;;;;;5.28;1.30;;;;;;;;;;5009319;28;20175;-65
2023/10/21 13:58:23;;;;;;;4.40;0.85;;;;;;;;;;5010577;28;20222;-65
2023/10/21 14:00:49;;;;;;;7.57;1.48;;;;;;;;;;5010970;28;20198;-65
2023/10/21 14:03:16;;;;;;;3.88;1.67;;;;;;;;;;5009673;28;20215;-65
2023/10/21 14:05:43;;;;;;;6.35;1.35;;;;;;;;;;5009724;28;20175;-65
2023/10/21 14:08:12;;;;;;;4.90;1.17;;;;;;;;;;5009269;28;20735;-65
2023/10/21 14:10:41;;;;;;;6.65;1.85;;;;;;;;;;5010236;28;20207;-64
2023/10/21 14:13:07;;;;;;;5.75;1.08;;;;;;;;;;5009468;28;20190;-64
2023/10/21 14:15:36;;;;;;;4.40;1.20;;;;;;;;;;5011032;28;20214;-64
2023/10/21 14:18:04;;;;;;;4.82;1.52;;;;;;;;;;5010436;28;20170;-65
2023/10/21 14:20:29;;;;;;;6.70;1.25;;;;;;;;;;5010318;28;20198;-65
2023/10/21 14:22:54;;;;;;;4.63;1.10;;;;;;;;;;5010600;28;20654;-64
2023/10/21 14:25:20;;;;;;;4.55;1.38;;;;;;;;;;5007781;28;20774;-65
2023/10/21 14:27:46;;;;;;;3.67;1.52;;;;;;;;;;5010397;28;20583;-65
2023/10/21 14:30:11;;;;;;;5.07;1.25;;;;;;;;;;5009489;28;20191;-64
2023/10/21 14:32:37;;;;;;;7.10;1.58;;;;;;;;;;5044383;22;20582;-65
2023/10/21 14:35:06;;;;;;;6.13;1.60;;;;;;;;;;5017063;28;20186;-65
2023/10/21 14:37:31;;;;;;;4.75;1.67;;;;;;;;;;5021010;28;20182;-64
2023/10/21 14:39:57;;;;;;;4.78;1.67;;;;;;;;;;5017628;28;20189;-63
2023/10/21 14:42:22;;;;;;;5.65;1.33;;;;;;;;;;5011159;28;20678;-66
2023/10/21 14:44:47;;;;;;;7.22;1.30;;;;;;;;;;5008295;28;20234;-62
2023/10/21 14:47:12;;;;;;;5.70;1.90;;;;;;;;;;5005116;28;20242;-63
2023/10/21 14:49:38;;;;;;;2.72;1.17;;;;;;;;;;5004278;28;20530;-63
2023/10/21 14:52:03;;;;;;;8.95;1.90;;;;;;;;;;5008003;28;20202;-64
2023/10/21 14:54:29;;;;;;;8.95;1.45;;;;;;;;;;5006948;28;20179;-66
2023/10/21 14:56:55;;;;;;;7.30;1.83;;;;;;;;;;5004618;28;20184;-62
2023/10/21 14:59:20;;;;;;;7.32;1.67;;;;;;;;;;5009382;28;20189;-64
2023/10/21 15:01:45;;;;;;;5.72;1.58;;;;;;;;;;5009936;28;20674;-64
2023/10/21 15:04:10;;;;;;;9.68;1.55;;;;;;;;;;5009392;28;20616;-63
2023/10/21 15:06:35;;;;;;;13.05;1.85;;;;;;;;;;5009609;28;20179;-64
2023/10/21 15:09:01;;;;;;;5.30;1.55;;;;;;;;;;5009303;28;20220;-64
2023/10/21 15:11:27;;;;;;;7.22;1.33;;;;;;;;;;5009736;28;20686;-65